Time;durP1;ratioP1;P1;durP2;ratioP2;P2;SDS_P1;SDS_P2;PMS_P1;PMS_P2;Temp;Humidity;BMP_temperature;BMP_pressure;BME280_temperature;BME280_humidity;BME280_pressure;Samples;Min_cycle;Max_cycle;Signal;HPM_P1;HPM_P2
2023/06/27 00:01:39;;;;;;;;;;;;;;;-145.06;100.00;63404.56;10401589;28;20029;-80
2023/06/27 00:06:42;;;;;;;0.10;0.10;;;;;;;-145.06;100.00;63404.56;10402564;28;20597;-80
2023/06/27 00:11:42;;;;;;;0.10;0.10;;;;;;;-145.06;100.00;63404.56;10407863;28;20026;-80
2023/06/27 00:16:43;;;;;;;0.00;0.00;;;;;;;-145.06;100.00;63404.56;10400120;28;20843;-80
2023/06/27 00:21:43;;;;;;;0.10;0.10;;;;;;;-145.06;100.00;63404.56;10397254;28;20102;-80
2023/06/27 00:26:43;;;;;;;0.10;0.10;;;;;;;-145.06;100.00;63404.56;10387681;28;20410;-80
2023/06/27 00:31:44;;;;;;;0.10;0.10;;;;;;;-145.06;100.00;63404.56;10411468;28;20120;-80
2023/06/27 00:36:44;;;;;;;0.10;0.10;;;;;;;-145.06;100.00;63404.56;10401840;28;20032;-80
2023/06/27 00:41:44;;;;;;;0.10;0.10;;;;;;;-145.06;100.00;63404.56;10374189;28;20029;-81
2023/06/27 00:46:47;;;;;;;0.10;0.10;;;;;;;-145.06;100.00;63404.56;10402786;28;20076;-80
2023/06/27 00:51:48;;;;;;;0.10;0.10;;;;;;;-145.06;100.00;63404.56;10399713;28;20037;-81
2023/06/27 00:56:53;;;;;;;0.10;0.10;;;;;;;-145.06;100.00;63404.56;10369521;28;20026;-80
2023/06/27 01:01:54;;;;;;;0.10;0.10;;;;;;;-145.06;100.00;63404.56;10379992;28;20053;-80
2023/06/27 01:07:31;;;;;;;0.10;0.10;;;;;;;-145.06;100.00;63404.56;10400727;28;20489;-81
2023/06/27 01:12:43;;;;;;;0.10;0.10;;;;;;;-145.06;100.00;63404.56;10378090;28;20083;-80
2023/06/27 01:17:44;;;;;;;0.10;0.10;;;;;;;-145.06;100.00;63404.56;10402648;28;20030;-80
2023/06/27 01:22:56;;;;;;;0.10;0.10;;;;;;;-145.06;100.00;63404.56;10390328;28;20073;-80
2023/06/27 01:27:56;;;;;;;0.10;0.10;;;;;;;-145.06;100.00;63404.56;10373077;28;20029;-81
2023/06/27 01:33:06;;;;;;;0.10;0.10;;;;;;;-145.06;100.00;63404.56;10386964;28;20018;-81
2023/06/27 01:38:13;;;;;;;0.10;0.10;;;;;;;-145.06;100.00;63404.56;10402172;28;20056;-80
2023/06/27 01:43:14;;;;;;;0.10;0.10;;;;;;;-145.06;100.00;63404.56;10394505;28;20018;-81
2023/06/27 01:48:16;;;;;;;0.10;0.10;;;;;;;-145.06;100.00;63404.56;10394956;28;20030;-79
2023/06/27 01:53:16;;;;;;;0.10;0.10;;;;;;;-145.06;100.00;63404.56;10383057;28;20014;-81
2023/06/27 01:58:17;;;;;;;0.10;0.10;;;;;;;-145.06;100.00;63404.56;10401377;28;20022;-81
2023/06/27 02:03:17;;;;;;;0.10;0.10;;;;;;;-145.06;100.00;63404.56;10384802;28;20014;-81
2023/06/27 02:08:17;;;;;;;0.20;0.20;;;;;;;-145.06;100.00;63404.56;10392283;28;20645;-80
2023/06/27 02:13:17;;;;;;;0.10;0.10;;;;;;;-145.06;100.00;63404.56;10399443;28;20116;-81
2023/06/27 02:18:18;;;;;;;0.10;0.10;;;;;;;-145.06;100.00;63404.56;10403365;28;20064;-82
2023/06/27 02:23:18;;;;;;;0.10;0.10;;;;;;;-145.06;100.00;63404.56;10388806;28;20018;-81
2023/06/27 02:28:18;;;;;;;0.10;0.10;;;;;;;-145.06;100.00;63404.56;10380023;28;20121;-81
2023/06/27 02:33:19;;;;;;;0.10;0.10;;;;;;;-145.06;100.00;63404.56;10377358;28;20479;-82
2023/06/27 02:38:19;;;;;;;0.10;0.10;;;;;;;-145.06;100.00;63404.56;10407217;28;20029;-82
2023/06/27 02:43:19;;;;;;;0.10;0.10;;;;;;;-145.06;100.00;63404.56;10329401;23;20049;-76
2023/06/27 02:48:21;;;;;;;0.10;0.10;;;;;;;-145.06;100.00;63404.56;10289792;28;20074;-76
2023/06/27 02:53:21;;;;;;;0.10;0.10;;;;;;;-145.06;100.00;63404.56;10289980;28;20077;-76
2023/06/27 02:58:21;;;;;;;0.10;0.10;;;;;;;-145.06;100.00;63404.56;10287712;28;20091;-75
2023/06/27 03:03:21;;;;;;;0.10;0.10;;;;;;;-145.06;100.00;63404.56;10288925;28;20023;-76
2023/06/27 03:08:22;;;;;;;0.10;0.10;;;;;;;-145.06;100.00;63404.56;10288558;28;20061;-76
2023/06/27 03:13:22;;;;;;;0.10;0.10;;;;;;;-145.06;100.00;63404.56;10285448;28;20082;-75
2023/06/27 03:18:22;;;;;;;0.00;0.00;;;;;;;-145.06;100.00;63404.56;10288210;28;20022;-76
2023/06/27 03:23:23;;;;;;;0.10;0.10;;;;;;;-145.06;100.00;63404.56;10287947;28;20023;-76
2023/06/27 03:28:23;;;;;;;0.10;0.10;;;;;;;-145.06;100.00;63404.56;10287684;28;20031;-76
2023/06/27 03:33:23;;;;;;;0.10;0.10;;;;;;;-145.06;100.00;63404.56;10287772;28;20022;-76
2023/06/27 03:38:24;;;;;;;0.10;0.10;;;;;;;-145.06;100.00;63404.56;10286037;28;20027;-76
2023/06/27 03:43:24;;;;;;;0.10;0.10;;;;;;;-145.06;100.00;63404.56;10287287;28;20031;-77
2023/06/27 03:48:25;;;;;;;0.10;0.10;;;;;;;-145.06;100.00;63404.56;10284188;28;20023;-76
2023/06/27 03:53:25;;;;;;;0.10;0.10;;;;;;;-145.06;100.00;63404.56;10287143;28;20022;-76
2023/06/27 03:58:26;;;;;;;0.10;0.10;;;;;;;-145.06;100.00;63404.56;10284456;28;20053;-77
2023/06/27 04:03:26;;;;;;;0.10;0.10;;;;;;;-145.06;100.00;63404.56;10260472;28;20424;-75
2023/06/27 04:08:26;;;;;;;0.10;0.10;;;;;;;-145.06;100.00;63404.56;10285262;28;20018;-76
2023/06/27 04:13:27;;;;;;;0.10;0.10;;;;;;;-145.06;100.00;63404.56;10283828;28;20030;-76
2023/06/27 04:18:28;;;;;;;0.10;0.10;;;;;;;-145.06;100.00;63404.56;10284251;28;20085;-75
2023/06/27 04:23:29;;;;;;;0.10;0.10;;;;;;;-145.06;100.00;63404.56;10284564;28;20027;-74
2023/06/27 04:28:32;;;;;;;0.10;0.10;;;;;;;-145.06;100.00;63404.56;10283869;28;20471;-76
2023/06/27 04:33:35;;;;;;;0.10;0.10;;;;;;;-145.06;100.00;63404.56;10284785;28;20026;-76
2023/06/27 04:38:38;;;;;;;0.10;0.10;;;;;;;-145.06;100.00;63404.56;10282924;28;20175;-76
2023/06/27 04:43:41;;;;;;;0.10;0.10;;;;;;;-145.06;100.00;63404.56;10284767;28;20042;-75
2023/06/27 04:48:42;;;;;;;0.10;0.10;;;;;;;-145.06;100.00;63404.56;10284042;28;20053;-76
2023/06/27 04:53:42;;;;;;;0.10;0.10;;;;;;;-145.06;100.00;63404.56;10284360;28;20035;-76
2023/06/27 04:58:43;;;;;;;0.10;0.10;;;;;;;-145.06;100.00;63404.56;10285031;28;20147;-76
2023/06/27 05:03:43;;;;;;;0.10;0.10;;;;;;;-145.06;100.00;63404.56;10283263;28;20031;-76
2023/06/27 05:08:44;;;;;;;0.10;0.10;;;;;;;-145.06;100.00;63404.56;10281900;28;20035;-76
2023/06/27 05:13:44;;;;;;;0.10;0.10;;;;;;;-145.06;100.00;63404.56;10284320;28;20266;-76
2023/06/27 05:18:45;;;;;;;0.10;0.10;;;;;;;-145.06;100.00;63404.56;10282818;28;20037;-76
2023/06/27 05:23:45;;;;;;;0.10;0.10;;;;;;;-145.06;100.00;63404.56;10283047;28;20034;-75
2023/06/27 05:28:45;;;;;;;0.10;0.10;;;;;;;-145.06;100.00;63404.56;10286877;28;20031;-77
2023/06/27 05:33:46;;;;;;;0.10;0.10;;;;;;;-145.06;100.00;63404.56;10291051;28;20495;-77
2023/06/27 05:38:47;;;;;;;0.00;0.00;;;;;;;-145.06;100.00;63404.56;10282785;28;20030;-76
2023/06/27 05:43:48;;;;;;;0.10;0.10;;;;;;;-145.06;100.00;63404.56;10292478;28;20041;-75
2023/06/27 05:48:48;;;;;;;0.00;0.00;;;;;;;-145.06;100.00;63404.56;10288904;28;20101;-75
2023/06/27 05:53:48;;;;;;;0.00;0.00;;;;;;;-145.06;100.00;63404.56;10289074;28;20037;-75
2023/06/27 05:58:48;;;;;;;0.00;0.00;;;;;;;-145.06;100.00;63404.56;10285357;28;20028;-75
2023/06/27 06:03:49;;;;;;;0.00;0.00;;;;;;;-145.06;100.00;63404.56;10289155;28;20031;-76
2023/06/27 06:08:49;;;;;;;0.00;0.00;;;;;;;-145.06;100.00;63404.56;10285537;28;20019;-76
2023/06/27 06:13:49;;;;;;;0.00;0.00;;;;;;;-145.06;100.00;63404.56;10287727;28;20215;-76
2023/06/27 06:18:49;;;;;;;0.10;0.10;;;;;;;-145.06;100.00;63404.56;10291527;28;20023;-76
2023/06/27 06:23:50;;;;;;;0.00;0.00;;;;;;;-145.06;100.00;63404.56;10293058;28;20483;-76
2023/06/27 06:28:51;;;;;;;0.10;0.10;;;;;;;-145.06;100.00;63404.56;10288522;28;20023;-77
2023/06/27 06:33:51;;;;;;;0.00;0.00;;;;;;;-145.06;100.00;63404.56;10291502;28;20110;-78
2023/06/27 06:38:51;;;;;;;0.10;0.10;;;;;;;-145.06;100.00;63404.56;10295455;28;20554;-78
2023/06/27 06:43:52;;;;;;;0.00;0.00;;;;;;;-145.06;100.00;63404.56;10292044;28;20073;-77
2023/06/27 06:48:52;;;;;;;0.10;0.10;;;;;;;-145.06;100.00;63404.56;10288344;28;20511;-78
2023/06/27 06:53:52;;;;;;;0.03;0.03;;;;;;;-145.06;100.00;63404.56;10285176;28;20468;-78
2023/06/27 06:58:53;;;;;;;0.03;0.03;;;;;;;-145.06;100.00;63404.56;10291067;28;20022;-78
2023/06/27 07:03:53;;;;;;;0.10;0.10;;;;;;;-145.06;100.00;63404.56;10287073;28;20050;-78
2023/06/27 07:08:53;;;;;;;0.00;0.00;;;;;;;-145.06;100.00;63404.56;10290642;28;20022;-78
2023/06/27 07:13:54;;;;;;;0.00;0.00;;;;;;;-145.06;100.00;63404.56;10289138;28;20041;-78
2023/06/27 07:18:54;;;;;;;0.10;0.10;;;;;;;-145.06;100.00;63404.56;10286376;28;20258;-78
2023/06/27 07:23:54;;;;;;;0.00;0.00;;;;;;;-145.06;100.00;63404.56;10291853;28;20023;-79
2023/06/27 07:28:55;;;;;;;0.00;0.00;;;;;;;-145.06;100.00;63404.56;10285780;28;20019;-77
2023/06/27 07:33:55;;;;;;;0.00;0.00;;;;;;;-145.06;100.00;63404.56;10288090;28;20419;-78
2023/06/27 07:38:58;;;;;;;0.00;0.00;;;;;;;-145.06;100.00;63404.56;10289920;28;20054;-79
2023/06/27 07:43:58;;;;;;;0.00;0.00;;;;;;;-145.06;100.00;63404.56;10290311;28;20027;-79
2023/06/27 07:48:59;;;;;;;0.00;0.00;;;;;;;-145.06;100.00;63404.56;10290194;28;20068;-79
2023/06/27 07:54:02;;;;;;;0.00;0.00;;;;;;;-145.06;100.00;63404.56;10287697;28;20027;-79
2023/06/27 07:59:04;;;;;;;0.10;0.10;;;;;;;-145.06;100.00;63404.56;10287001;28;20484;-79
2023/06/27 08:04:04;;;;;;;0.00;0.00;;;;;;;-145.06;100.00;63404.56;10289567;28;20487;-78
2023/06/27 08:09:05;;;;;;;0.00;0.00;;;;;;;-145.06;100.00;63404.56;10291092;28;20179;-77
2023/06/27 08:14:05;;;;;;;0.00;0.00;;;;;;;-145.06;100.00;63404.56;10275561;28;20019;-78
2023/06/27 08:19:06;;;;;;;0.00;0.00;;;;;;;-145.06;100.00;63404.56;10286563;28;20101;-79
2023/06/27 08:24:06;;;;;;;0.00;0.00;;;;;;;-145.06;100.00;63404.56;10290758;28;20019;-78
2023/06/27 08:29:06;;;;;;;0.00;0.00;;;;;;;-145.06;100.00;63404.56;10292379;28;20026;-78
2023/06/27 08:34:07;;;;;;;0.00;0.00;;;;;;;-145.06;100.00;63404.56;10291903;28;20587;-79
2023/06/27 08:39:07;;;;;;;0.03;0.03;;;;;;;-145.06;100.00;63404.56;10291297;28;20049;-79
2023/06/27 08:44:07;;;;;;;0.00;0.00;;;;;;;-145.06;100.00;63404.56;10286164;28;20039;-78
2023/06/27 08:49:13;;;;;;;0.10;0.10;;;;;;;-145.06;100.00;63404.56;10286236;28;20031;-78
2023/06/27 08:54:21;;;;;;;0.00;0.00;;;;;;;-145.06;100.00;63404.56;10283069;28;20027;-78
2023/06/27 08:59:24;;;;;;;0.00;0.00;;;;;;;-145.06;100.00;63404.56;10285282;28;20046;-78
2023/06/27 09:04:25;;;;;;;0.00;0.00;;;;;;;-145.06;100.00;63404.56;10288678;28;20037;-77
2023/06/27 09:09:27;;;;;;;0.00;0.00;;;;;;;-145.06;100.00;63404.56;10297682;28;20110;-79
2023/06/27 09:14:27;;;;;;;0.10;0.10;;;;;;;-145.06;100.00;63404.56;10298784;28;20019;-78
2023/06/27 09:19:28;;;;;;;0.10;0.10;;;;;;;-145.06;100.00;63404.56;10299104;28;20065;-78
2023/06/27 09:24:31;;;;;;;0.00;0.00;;;;;;;-145.06;100.00;63404.56;10298184;28;20113;-78
2023/06/27 09:29:34;;;;;;;0.10;0.10;;;;;;;-145.06;100.00;63404.56;10289211;28;20027;-78
2023/06/27 09:34:35;;;;;;;0.00;0.00;;;;;;;-145.06;100.00;63404.56;10296915;28;20022;-78
2023/06/27 09:39:36;;;;;;;0.00;0.00;;;;;;;-145.06;100.00;63404.56;10296415;28;20060;-77
2023/06/27 09:44:36;;;;;;;0.10;0.10;;;;;;;-145.06;100.00;63404.56;10296866;28;20542;-77
2023/06/27 09:49:41;;;;;;;0.00;0.00;;;;;;;-145.06;100.00;63404.56;10294896;28;20050;-77
2023/06/27 09:54:45;;;;;;;0.03;0.03;;;;;;;-145.06;100.00;63404.56;10296427;28;20057;-78
2023/06/27 09:59:45;;;;;;;0.00;0.00;;;;;;;-145.06;100.00;63404.56;10295355;28;20121;-77
2023/06/27 10:04:46;;;;;;;0.00;0.00;;;;;;;-145.06;100.00;63404.56;10297674;28;20091;-78
2023/06/27 10:09:46;;;;;;;0.10;0.10;;;;;;;-145.06;100.00;63404.56;10297034;28;20035;-78
2023/06/27 10:14:48;;;;;;;0.00;0.00;;;;;;;-145.06;100.00;63404.56;10295750;28;20019;-78
2023/06/27 10:19:49;;;;;;;0.00;0.00;;;;;;;-145.06;100.00;63404.56;10296492;28;20099;-77
2023/06/27 10:24:53;;;;;;;0.00;0.00;;;;;;;-145.06;100.00;63404.56;10297307;28;20023;-77
2023/06/27 10:29:53;;;;;;;0.10;0.10;;;;;;;-145.06;100.00;63404.56;10291996;28;20050;-79
2023/06/27 10:34:58;;;;;;;0.00;0.00;;;;;;;-145.06;100.00;63404.56;10293503;28;20106;-79
2023/06/27 10:40:07;;;;;;;0.10;0.10;;;;;;;-145.06;100.00;63404.56;10296443;28;20034;-78
2023/06/27 10:45:09;;;;;;;0.00;0.00;;;;;;;-145.06;100.00;63404.56;10294136;28;20027;-78
2023/06/27 10:50:10;;;;;;;0.00;0.00;;;;;;;-145.06;100.00;63404.56;10294318;28;20030;-77
2023/06/27 10:55:14;;;;;;;0.00;0.00;;;;;;;-145.06;100.00;63404.56;10290452;28;20635;-78
2023/06/27 11:00:24;;;;;;;0.00;0.00;;;;;;;-145.06;100.00;63404.56;10293114;28;20081;-78
2023/06/27 11:05:43;;;;;;;0.00;0.00;;;;;;;-145.06;100.00;63404.56;10294325;28;20480;-77
2023/06/27 11:11:00;;;;;;;0.00;0.00;;;;;;;-145.06;100.00;63404.56;10290296;28;20019;-77
2023/06/27 11:16:01;;;;;;;0.00;0.00;;;;;;;-145.06;100.00;63404.56;10284807;28;20025;-77
2023/06/27 11:21:02;;;;;;;0.00;0.00;;;;;;;-145.06;100.00;63404.56;10288472;28;20019;-77
2023/06/27 11:26:02;;;;;;;0.00;0.00;;;;;;;-145.06;100.00;63404.56;10286278;28;20374;-77
2023/06/27 11:31:03;;;;;;;0.00;0.00;;;;;;;-145.06;100.00;63404.56;10289595;28;20026;-78
2023/06/27 11:36:05;;;;;;;0.00;0.00;;;;;;;-145.06;100.00;63404.56;10292476;28;20029;-77
2023/06/27 11:41:05;;;;;;;0.00;0.00;;;;;;;-145.06;100.00;63404.56;10289932;28;20648;-77
2023/06/27 11:46:06;;;;;;;0.00;0.00;;;;;;;-145.06;100.00;63404.56;10291414;28;20034;-78
2023/06/27 11:51:08;;;;;;;0.00;0.00;;;;;;;-145.06;100.00;63404.56;10293506;28;20031;-78
2023/06/27 11:56:10;;;;;;;0.00;0.00;;;;;;;-145.06;100.00;63404.56;10286874;28;20047;-74
2023/06/27 12:01:15;;;;;;;0.00;0.00;;;;;;;-145.06;100.00;63404.56;10280857;28;20054;-76
2023/06/27 12:06:24;;;;;;;0.10;0.10;;;;;;;-145.06;100.00;63404.56;10282037;28;20392;-75
2023/06/27 12:11:26;;;;;;;0.00;0.00;;;;;;;-145.06;100.00;63404.56;10292238;28;20030;-76
2023/06/27 12:16:29;;;;;;;0.00;0.00;;;;;;;-145.06;100.00;63404.56;10305089;28;20068;-75
2023/06/27 12:21:30;;;;;;;;;;;;;;;-145.06;100.00;63404.56;10294546;28;20588;-76
2023/06/27 12:26:30;;;;;;;0.00;0.00;;;;;;;-145.06;100.00;63404.56;10286831;28;19922;-76
2023/06/27 12:31:32;;;;;;;0.00;0.00;;;;;;;-145.06;100.00;63404.56;10285411;28;20090;-76
2023/06/27 12:36:32;;;;;;;0.00;0.00;;;;;;;-145.06;100.00;63404.56;10289354;28;20027;-76
2023/06/27 12:41:33;;;;;;;0.00;0.00;;;;;;;-145.06;100.00;63404.56;10289661;28;20114;-77
2023/06/27 12:46:35;;;;;;;0.10;0.10;;;;;;;-145.06;100.00;63404.56;10287670;28;20027;-77
2023/06/27 12:51:35;;;;;;;0.00;0.00;;;;;;;-145.06;100.00;63404.56;10288851;28;20022;-77
2023/06/27 12:56:35;;;;;;;0.00;0.00;;;;;;;-145.06;100.00;63404.56;10283389;28;20431;-78
2023/06/27 13:01:54;;;;;;;0.10;0.10;;;;;;;-145.06;100.00;63404.56;10287978;28;20023;-78
2023/06/27 13:06:54;;;;;;;0.10;0.10;;;;;;;-145.06;100.00;63404.56;10274272;28;20027;-78
2023/06/27 13:11:55;;;;;;;0.00;0.00;;;;;;;-145.06;100.00;63404.56;10287747;28;20368;-78
2023/06/27 13:16:55;;;;;;;0.10;0.10;;;;;;;-145.06;100.00;63404.56;10289102;28;20030;-78
2023/06/27 13:21:55;;;;;;;0.00;0.00;;;;;;;-145.06;100.00;63404.56;10281240;28;20260;-78
2023/06/27 13:26:56;;;;;;;0.10;0.10;;;;;;;-145.06;100.00;63404.56;10283603;28;20396;-78
2023/06/27 13:31:56;;;;;;;0.10;0.10;;;;;;;-145.06;100.00;63404.56;10288271;28;20027;-78
2023/06/27 13:36:56;;;;;;;0.00;0.00;;;;;;;-145.06;100.00;63404.56;10285990;28;20468;-79
2023/06/27 13:41:57;;;;;;;0.00;0.00;;;;;;;-145.06;100.00;63404.56;10285387;28;20061;-78
2023/06/27 13:46:57;;;;;;;0.00;0.00;;;;;;;-145.06;100.00;63404.56;10289081;28;20027;-78
2023/06/27 13:51:57;;;;;;;0.00;0.00;;;;;;;-145.06;100.00;63404.56;10289690;28;20487;-77
2023/06/27 13:56:58;;;;;;;0.10;0.10;;;;;;;-145.06;100.00;63404.56;10291036;28;20050;-78
2023/06/27 14:01:59;;;;;;;0.10;0.10;;;;;;;-145.06;100.00;63404.56;10293571;28;20022;-78
2023/06/27 14:06:59;;;;;;;0.10;0.10;;;;;;;-145.06;100.00;63404.56;10295005;28;20301;-78
2023/06/27 14:11:59;;;;;;;0.00;0.00;;;;;;;-145.06;100.00;63404.56;10295631;28;20116;-78
2023/06/27 14:16:59;;;;;;;0.00;0.00;;;;;;;-145.06;100.00;63404.56;10294937;28;20015;-78
2023/06/27 14:22:00;;;;;;;0.00;0.00;;;;;;;-145.06;100.00;63404.56;10294830;28;20019;-78
2023/06/27 14:27:01;;;;;;;0.00;0.00;;;;;;;-145.06;100.00;63404.56;10295385;28;20503;-78
2023/06/27 14:32:01;;;;;;;0.00;0.00;;;;;;;-145.06;100.00;63404.56;10294964;28;20122;-78
2023/06/27 14:37:01;;;;;;;0.00;0.00;;;;;;;-145.06;100.00;63404.56;10295431;28;20428;-78
2023/06/27 14:42:01;;;;;;;0.00;0.00;;;;;;;-145.06;100.00;63404.56;10325789;23;20030;-78
2023/06/27 14:47:02;;;;;;;0.10;0.10;;;;;;;-145.06;100.00;63404.56;10384438;28;20026;-76
2023/06/27 14:52:04;;;;;;;0.00;0.00;;;;;;;-145.06;100.00;63404.56;10399253;28;20505;-76
2023/06/27 14:57:05;;;;;;;0.00;0.00;;;;;;;-145.06;100.00;63404.56;10390108;28;20081;-76
2023/06/27 15:02:05;;;;;;;0.00;0.00;;;;;;;-145.06;100.00;63404.56;10373857;28;20108;-77
2023/06/27 15:07:06;;;;;;;0.00;0.00;;;;;;;-145.06;100.00;63404.56;10376956;28;20037;-77
2023/06/27 15:12:07;;;;;;;0.00;0.00;;;;;;;-145.06;100.00;63404.56;10399834;28;20045;-76
2023/06/27 15:17:07;;;;;;;0.03;0.03;;;;;;;-145.06;100.00;63404.56;10382268;28;20032;-78
2023/06/27 15:22:07;;;;;;;0.00;0.00;;;;;;;-145.06;100.00;63404.56;10363660;28;20048;-77
2023/06/27 15:27:08;;;;;;;0.00;0.00;;;;;;;-145.06;100.00;63404.56;10393227;28;20097;-78
2023/06/27 15:32:11;;;;;;;0.10;0.10;;;;;;;-145.06;100.00;63404.56;10388970;28;20025;-77
2023/06/27 15:37:11;;;;;;;0.00;0.00;;;;;;;-145.06;100.00;63404.56;10399531;28;20367;-77
2023/06/27 15:42:11;;;;;;;0.00;0.00;;;;;;;-145.06;100.00;63404.56;10384173;28;20026;-77
2023/06/27 15:47:12;;;;;;;0.10;0.10;;;;;;;-145.06;100.00;63404.56;10391991;28;20037;-78
2023/06/27 15:52:12;;;;;;;0.00;0.00;;;;;;;-145.06;100.00;63404.56;10379252;28;20375;-76
2023/06/27 15:57:12;;;;;;;0.00;0.00;;;;;;;-145.06;100.00;63404.56;10396659;28;20159;-76
2023/06/27 16:02:13;;;;;;;0.00;0.00;;;;;;;-145.06;100.00;63404.56;10384940;28;20034;-76
2023/06/27 16:07:13;;;;;;;0.00;0.00;;;;;;;-145.06;100.00;63404.56;10393595;28;20030;-76
2023/06/27 16:12:13;;;;;;;0.00;0.00;;;;;;;-145.06;100.00;63404.56;10397001;28;20030;-76
2023/06/27 16:17:14;;;;;;;0.00;0.00;;;;;;;-145.06;100.00;63404.56;10353464;28;20022;-76
2023/06/27 16:22:14;;;;;;;0.00;0.00;;;;;;;-145.06;100.00;63404.56;10367140;28;20032;-76
2023/06/27 16:27:15;;;;;;;0.00;0.00;;;;;;;-145.06;100.00;63404.56;10395625;28;20490;-76
2023/06/27 16:32:16;;;;;;;0.00;0.00;;;;;;;-145.06;100.00;63404.56;10385411;28;20482;-77
2023/06/27 16:37:16;;;;;;;0.10;0.10;;;;;;;-145.06;100.00;63404.56;10390262;28;20529;-77
2023/06/27 16:42:17;;;;;;;0.10;0.10;;;;;;;-145.06;100.00;63404.56;10383099;28;20105;-77
2023/06/27 16:47:17;;;;;;;0.00;0.00;;;;;;;-145.06;100.00;63404.56;10374875;28;20072;-77
2023/06/27 16:52:17;;;;;;;0.10;0.10;;;;;;;-145.06;100.00;63404.56;10382572;28;20026;-76
2023/06/27 16:57:18;;;;;;;0.10;0.10;;;;;;;-145.06;100.00;63404.56;10376996;28;20101;-76
2023/06/27 17:02:18;;;;;;;0.00;0.00;;;;;;;-145.06;100.00;63404.56;10386114;28;20437;-77
2023/06/27 17:07:18;;;;;;;0.00;0.00;;;;;;;-145.06;100.00;63404.56;10397956;28;20033;-77
2023/06/27 17:12:19;;;;;;;0.10;0.10;;;;;;;-145.06;100.00;63404.56;10388609;28;20024;-77
2023/06/27 17:17:19;;;;;;;0.10;0.10;;;;;;;-145.06;100.00;63404.56;10397714;28;20048;-75
2023/06/27 17:22:20;;;;;;;0.10;0.10;;;;;;;-145.06;100.00;63404.56;10393629;28;20708;-75
2023/06/27 17:27:20;;;;;;;0.10;0.10;;;;;;;-145.06;100.00;63404.56;10397342;28;20462;-77
2023/06/27 17:32:21;;;;;;;0.00;0.00;;;;;;;-145.06;100.00;63404.56;10397626;28;20052;-77
2023/06/27 17:37:21;;;;;;;0.10;0.10;;;;;;;-145.06;100.00;63404.56;10381415;28;20049;-76
2023/06/27 17:42:21;;;;;;;0.10;0.10;;;;;;;-145.06;100.00;63404.56;10400894;28;20309;-76
2023/06/27 17:47:22;;;;;;;0.00;0.00;;;;;;;-145.06;100.00;63404.56;10402074;28;20021;-76
2023/06/27 17:52:22;;;;;;;0.10;0.10;;;;;;;-145.06;100.00;63404.56;10404817;28;20509;-76
2023/06/27 17:57:22;;;;;;;0.10;0.10;;;;;;;-145.06;100.00;63404.56;10398437;28;20033;-77
2023/06/27 18:02:23;;;;;;;0.10;0.10;;;;;;;-145.06;100.00;63404.56;10388440;28;20045;-76
2023/06/27 18:07:24;;;;;;;0.00;0.00;;;;;;;-145.06;100.00;63404.56;10393461;28;20025;-77
2023/06/27 18:12:29;;;;;;;0.00;0.00;;;;;;;-145.06;100.00;63404.56;10401024;28;20052;-76
2023/06/27 18:17:30;;;;;;;0.00;0.00;;;;;;;-145.06;100.00;63404.56;10407959;28;20362;-77
2023/06/27 18:22:30;;;;;;;0.00;0.00;;;;;;;-145.06;100.00;63404.56;10398975;28;20032;-76
2023/06/27 18:27:30;;;;;;;0.10;0.10;;;;;;;-145.06;100.00;63404.56;10401273;28;20823;-76
2023/06/27 18:32:30;;;;;;;0.10;0.10;;;;;;;-145.06;100.00;63404.56;10398788;28;20043;-76
2023/06/27 18:37:31;;;;;;;0.10;0.10;;;;;;;-145.06;100.00;63404.56;10398224;28;20510;-75
2023/06/27 18:42:31;;;;;;;0.10;0.10;;;;;;;-145.06;100.00;63404.56;10399845;28;20021;-76
2023/06/27 18:47:31;;;;;;;0.10;0.10;;;;;;;-145.06;100.00;63404.56;10394390;28;20548;-76
2023/06/27 18:52:31;;;;;;;0.10;0.10;;;;;;;-145.06;100.00;63404.56;10395410;28;20025;-76
2023/06/27 18:57:32;;;;;;;0.00;0.00;;;;;;;-145.06;100.00;63404.56;10388080;28;20023;-76
2023/06/27 19:02:33;;;;;;;0.10;0.10;;;;;;;-145.06;100.00;63404.56;10400683;28;20018;-76
2023/06/27 19:07:33;;;;;;;0.10;0.10;;;;;;;-145.06;100.00;63404.56;10372119;28;20025;-75
2023/06/27 19:12:33;;;;;;;0.10;0.10;;;;;;;-145.06;100.00;63404.56;10389184;28;20021;-75
2023/06/27 19:17:34;;;;;;;0.00;0.00;;;;;;;-145.06;100.00;63404.56;10372243;28;20029;-76
2023/06/27 19:22:34;;;;;;;0.10;0.10;;;;;;;-145.06;100.00;63404.56;10372463;28;20021;-76
2023/06/27 19:27:34;;;;;;;0.10;0.10;;;;;;;-145.06;100.00;63404.56;10391686;28;20121;-76
2023/06/27 19:32:34;;;;;;;0.00;0.00;;;;;;;-145.06;100.00;63404.56;10398798;28;20030;-76
2023/06/27 19:37:36;;;;;;;0.10;0.10;;;;;;;-145.06;100.00;63404.56;10390267;28;20018;-76
2023/06/27 19:42:36;;;;;;;0.10;0.10;;;;;;;-145.06;100.00;63404.56;10382579;28;20368;-76
2023/06/27 19:47:37;;;;;;;0.10;0.10;;;;;;;-145.06;100.00;63404.56;10393798;28;20017;-76
2023/06/27 19:52:37;;;;;;;0.10;0.10;;;;;;;-145.06;100.00;63404.56;10393954;28;20018;-76
2023/06/27 19:57:37;;;;;;;0.10;0.10;;;;;;;-145.06;100.00;63404.56;10361876;28;20045;-76
2023/06/27 20:02:37;;;;;;;0.10;0.10;;;;;;;-145.06;100.00;63404.56;10378675;28;20017;-76
2023/06/27 20:07:38;;;;;;;0.10;0.10;;;;;;;-145.06;100.00;63404.56;10381632;28;20105;-76
2023/06/27 20:12:39;;;;;;;0.13;0.13;;;;;;;-145.06;100.00;63404.56;10386613;28;20025;-76
2023/06/27 20:17:40;;;;;;;0.10;0.10;;;;;;;-145.06;100.00;63404.56;10392519;28;20063;-75
2023/06/27 20:22:41;;;;;;;0.10;0.10;;;;;;;-145.06;100.00;63404.56;10383445;28;20017;-76
2023/06/27 20:27:42;;;;;;;0.10;0.10;;;;;;;-145.06;100.00;63404.56;10398718;28;20014;-76
2023/06/27 20:32:42;;;;;;;0.10;0.10;;;;;;;-145.06;100.00;63404.56;10365915;28;20037;-76
2023/06/27 20:37:42;;;;;;;0.10;0.10;;;;;;;-145.06;100.00;63404.56;10364364;28;20428;-76
2023/06/27 20:42:43;;;;;;;0.00;0.00;;;;;;;-145.06;100.00;63404.56;10387397;28;20479;-76
2023/06/27 20:47:43;;;;;;;0.00;0.00;;;;;;;-145.06;100.00;63404.56;10427164;22;20091;-74
2023/06/27 20:52:43;;;;;;;0.10;0.10;;;;;;;-145.06;100.00;63404.56;10410290;28;20486;-75
2023/06/27 20:57:44;;;;;;;0.10;0.10;;;;;;;-145.06;100.00;63404.56;10411381;28;20100;-73
2023/06/27 21:02:44;;;;;;;0.10;0.10;;;;;;;-145.06;100.00;63404.56;10413046;28;20481;-73
2023/06/27 21:07:44;;;;;;;0.10;0.10;;;;;;;-145.06;100.00;63404.56;10407582;28;20027;-74
2023/06/27 21:12:44;;;;;;;0.10;0.10;;;;;;;-145.06;100.00;63404.56;10423200;28;20025;-74
2023/06/27 21:17:45;;;;;;;0.10;0.10;;;;;;;-145.06;100.00;63404.56;10406096;28;20025;-74
2023/06/27 21:22:45;;;;;;;0.10;0.10;;;;;;;-145.06;100.00;63404.56;10422991;28;20021;-74
2023/06/27 21:27:46;;;;;;;0.10;0.10;;;;;;;-145.06;100.00;63404.56;10422310;28;20026;-74
2023/06/27 21:32:46;;;;;;;0.10;0.10;;;;;;;-145.06;100.00;63404.56;10414892;28;20054;-73
2023/06/27 21:37:46;;;;;;;0.20;0.20;;;;;;;-145.06;100.00;63404.56;10380599;28;20401;-74
2023/06/27 21:42:46;;;;;;;0.10;0.10;;;;;;;-145.06;100.00;63404.56;10406798;28;20482;-74
2023/06/27 21:47:47;;;;;;;0.00;0.00;;;;;;;-145.06;100.00;63404.56;10422476;28;20025;-73
2023/06/27 21:52:47;;;;;;;0.10;0.10;;;;;;;-145.06;100.00;63404.56;10405000;28;20037;-74
2023/06/27 21:57:48;;;;;;;0.10;0.10;;;;;;;-145.06;100.00;63404.56;10399813;28;20029;-74
2023/06/27 22:02:49;;;;;;;0.10;0.10;;;;;;;-145.06;100.00;63404.56;10382853;28;20048;-74
2023/06/27 22:07:50;;;;;;;0.10;0.10;;;;;;;-145.06;100.00;63404.56;10405739;28;20056;-74
2023/06/27 22:12:50;;;;;;;0.10;0.10;;;;;;;-145.06;100.00;63404.56;10403918;28;20032;-74
2023/06/27 22:17:51;;;;;;;0.10;0.10;;;;;;;-145.06;100.00;63404.56;10374918;28;20017;-73
2023/06/27 22:22:51;;;;;;;0.10;0.10;;;;;;;-145.06;100.00;63404.56;10374303;28;20034;-74
2023/06/27 22:27:51;;;;;;;0.00;0.00;;;;;;;-145.06;100.00;63404.56;10384490;28;20052;-74
2023/06/27 22:32:55;;;;;;;0.10;0.10;;;;;;;-145.06;100.00;63404.56;10398044;28;20037;-74